Terminal Aerodrome Forecast
Issued by NWS

Home | Current Version | Previous Version | Text Only | Print | Product List | Glossary On
Versions: 1 2 3 4 5 6 7 8 9 10 11 12 13 14 15
228
FTUS43 KAPX 241447 AAB
TAFPLN
TAF AMD
KPLN 241447Z 2415/2512 VRB05KT P6SM SCT026 BKN050
     FM241600 20011G17KT P6SM BKN060
     FM241800 22010KT P6SM BKN060
     FM242200 23009KT P6SM VCTS BKN050CB
     FM250200 26006KT P6SM SCT090=

USA.gov is the U.S. government's official web portal to all federal, state and local government web resources and services.